createdAt,value
2024-04-14T00:00:36.059Z,80.43
2024-04-14T00:01:36.357Z,80.63
2024-04-14T00:02:36.764Z,80.22
2024-04-14T00:03:37.149Z,80.22
2024-04-14T00:04:37.620Z,80.46
2024-04-14T00:05:37.864Z,80.77
2024-04-14T00:06:38.205Z,80.97
2024-04-14T00:07:38.560Z,80.63
2024-04-14T00:08:38.899Z,80.63
2024-04-14T00:09:39.293Z,80.77
2024-04-14T00:10:39.624Z,80.63
2024-04-14T00:11:40.011Z,80.73
2024-04-14T00:12:40.392Z,80.83
2024-04-14T00:13:40.706Z,81.03
2024-04-14T00:14:41.065Z,80.73
2024-04-14T00:15:41.540Z,81.27
2024-04-14T00:16:41.796Z,81.68
2024-04-14T00:17:42.270Z,81.88
2024-04-14T00:18:42.616Z,81.57
2024-04-14T00:19:42.868Z,81.68
2024-04-14T00:20:43.249Z,81.57
2024-04-14T00:21:43.674Z,81.62
2024-04-14T00:22:43.989Z,81.92
2024-04-14T00:23:44.366Z,81.82
2024-04-14T00:24:44.719Z,81.78
2024-04-14T00:25:45.078Z,81.68
2024-04-14T00:26:45.456Z,81.68
2024-04-14T00:27:45.859Z,81.92
2024-04-14T00:28:46.177Z,81.92
2024-04-14T00:29:46.537Z,82.32
2024-04-14T00:30:46.913Z,82.18
2024-04-14T00:31:47.259Z,82.08
2024-04-14T00:32:47.739Z,81.88
2024-04-14T00:33:48.085Z,81.71
2024-04-14T00:34:48.361Z,81.78
2024-04-14T00:35:48.725Z,82.22
2024-04-14T00:36:49.160Z,82.87
2024-04-14T00:37:49.477Z,82.76
2024-04-14T00:38:49.843Z,82.97
2024-04-14T00:39:50.293Z,82.56
2024-04-14T00:40:50.541Z,82.56
2024-04-14T00:41:50.905Z,82.87
2024-04-14T00:42:51.346Z,82.76
2024-04-14T00:43:51.640Z,82.97
2024-04-14T00:44:52.003Z,82.56
2024-04-14T00:45:52.479Z,82.06
2024-04-14T00:46:52.743Z,81.85
2024-04-14T00:47:53.153Z,81.96
2024-04-14T00:48:53.460Z,81.25
2024-04-14T00:49:53.757Z,80.94
2024-04-14T00:50:54.168Z,81.45
2024-04-14T00:51:54.593Z,81.25
2024-04-14T00:52:54.885Z,81.05
2024-04-14T00:53:55.212Z,81.09
2024-04-14T00:54:55.589Z,80.68
2024-04-14T00:55:55.924Z,80.88
2024-04-14T00:56:56.296Z,80.27
2024-04-14T00:57:56.757Z,80.18
2024-04-14T00:58:57.015Z,80.58
2024-04-14T00:59:57.404Z,80.07
2024-04-14T01:00:57.850Z,79.97
2024-04-14T01:01:58.095Z,80.18
2024-04-14T01:02:58.496Z,79.77
2024-04-14T01:03:58.949Z,80.18
2024-04-14T01:04:59.172Z,79.77
2024-04-14T01:05:59.516Z,79.77
2024-04-14T01:06:59.928Z,80.01
2024-04-14T01:08:00.264Z,80.07
2024-04-14T01:09:00.616Z,80.21
2024-04-14T01:10:01.077Z,80.38
2024-04-14T01:11:01.391Z,80.18
2024-04-14T01:12:01.670Z,80.98
2024-04-14T01:13:02.129Z,82.10
2024-04-14T01:14:02.379Z,82.14
2024-04-14T01:15:02.739Z,82.95
2024-04-14T01:16:03.159Z,83.69
2024-04-14T01:17:03.501Z,84.20
2024-04-14T01:18:03.986Z,84.61
2024-04-14T01:19:04.331Z,83.96
2024-04-14T01:20:04.542Z,84.41
2024-04-14T01:21:04.903Z,84.81
2024-04-14T01:22:05.307Z,85.15
2024-04-14T01:23:05.673Z,84.85
2024-04-14T01:24:05.999Z,85.30
2024-04-14T01:25:06.842Z,85.86
2024-04-14T01:26:06.702Z,85.46
2024-04-14T01:27:07.084Z,85.15
2024-04-14T01:28:07.459Z,85.36
2024-04-14T01:29:07.786Z,85.46
2024-04-14T01:30:08.146Z,84.85
2024-04-14T01:31:08.511Z,85.15
2024-04-14T01:32:08.958Z,85.50
2024-04-14T01:33:09.293Z,85.50
2024-04-14T01:34:09.567Z,85.36
2024-04-14T01:35:09.943Z,85.46
2024-04-14T01:36:10.308Z,85.66
2024-04-14T01:37:10.679Z,85.46
2024-04-14T01:38:19.169Z,85.39
2024-04-14T01:39:11.407Z,85.66
2024-04-14T01:40:11.760Z,85.36
2024-04-14T01:41:12.117Z,85.39
2024-04-14T01:42:12.476Z,85.60
2024-04-14T01:43:12.874Z,86.10
2024-04-14T01:44:13.203Z,86.31
2024-04-14T01:45:13.571Z,86.76
2024-04-14T01:46:13.945Z,87.46
2024-04-14T01:47:14.301Z,87.26
2024-04-14T01:48:14.772Z,87.46
2024-04-14T01:49:15.096Z,87.26
2024-04-14T01:50:15.432Z,87.32
2024-04-14T01:51:15.779Z,87.32
2024-04-14T01:52:16.154Z,87.22
2024-04-14T01:53:16.511Z,87.02
2024-04-14T01:54:16.849Z,87.12
2024-04-14T01:55:17.200Z,86.71
2024-04-14T01:56:17.541Z,87.57
2024-04-14T01:57:17.918Z,87.37
2024-04-14T01:58:18.288Z,87.46
2024-04-14T01:59:18.625Z,87.12
2024-04-14T02:00:18.994Z,87.67
2024-04-14T02:01:19.402Z,87.77
2024-04-14T02:02:19.728Z,88.07
2024-04-14T02:03:20.161Z,87.87
2024-04-14T02:04:20.655Z,88.28
2024-04-14T02:05:20.795Z,88.38
2024-04-14T02:06:21.176Z,88.34
2024-04-14T02:07:21.529Z,88.13
2024-04-14T02:08:21.908Z,87.93
2024-04-14T02:09:22.284Z,87.48
2024-04-14T02:10:22.612Z,87.12
2024-04-14T02:11:22.963Z,86.96
2024-04-14T02:12:23.334Z,87.37
2024-04-14T02:13:23.740Z,86.96
2024-04-14T02:14:24.018Z,86.90
2024-04-14T02:15:24.422Z,87.00
2024-04-14T02:16:24.725Z,86.96
2024-04-14T02:17:25.120Z,87.26
2024-04-14T02:18:25.657Z,87.26
2024-04-14T02:19:25.820Z,86.08
2024-04-14T02:20:26.194Z,86.49
2024-04-14T02:21:26.588Z,85.17
2024-04-14T02:22:26.936Z,84.20
2024-04-14T02:23:27.324Z,83.38
2024-04-14T02:24:27.667Z,83.18
2024-04-14T02:25:28.029Z,83.22
2024-04-14T02:26:28.380Z,83.32
2024-04-14T02:27:28.824Z,83.32
2024-04-14T02:28:29.144Z,83.32
2024-04-14T02:29:29.488Z,82.81
2024-04-14T02:30:29.880Z,82.95
2024-04-14T02:31:30.191Z,83.15
2024-04-14T02:32:30.609Z,82.92
2024-04-14T02:33:30.926Z,82.95
2024-04-14T02:34:31.247Z,82.85
2024-04-14T02:35:31.604Z,82.61
2024-04-14T02:36:32.008Z,81.93
2024-04-14T02:37:32.303Z,81.53
2024-04-14T02:38:32.703Z,81.84
2024-04-14T02:39:33.049Z,81.84
2024-04-14T02:40:33.391Z,81.84
2024-04-14T02:41:33.753Z,82.14
2024-04-14T02:42:34.286Z,82.14
2024-04-14T02:43:34.645Z,81.93
2024-04-14T02:44:34.830Z,81.37
2024-04-14T02:45:35.201Z,81.37
2024-04-14T02:46:35.571Z,81.46
2024-04-14T02:47:35.990Z,81.57
2024-04-14T02:48:36.399Z,81.81
2024-04-14T02:49:36.657Z,81.91
2024-04-14T02:50:37.029Z,82.01
2024-04-14T02:51:37.411Z,82.32
2024-04-14T02:52:37.755Z,82.52
2024-04-14T02:53:38.136Z,82.28
2024-04-14T02:54:38.500Z,81.98
2024-04-14T02:55:38.807Z,81.87
2024-04-14T02:56:39.168Z,82.52
2024-04-14T02:57:39.566Z,83.17
2024-04-14T02:58:39.949Z,83.27
2024-04-14T02:59:40.261Z,83.58
2024-04-14T03:00:40.678Z,83.58
2024-04-14T03:01:40.998Z,83.37
2024-04-14T03:02:41.356Z,83.34
2024-04-14T03:03:41.800Z,83.68
2024-04-14T03:04:42.127Z,83.89
2024-04-14T03:05:42.423Z,83.78
2024-04-14T03:06:42.847Z,84.29
2024-04-14T03:07:43.123Z,84.50
2024-04-14T03:08:43.507Z,84.59
2024-04-14T03:09:43.887Z,84.50
2024-04-14T03:10:44.179Z,84.35
2024-04-14T03:11:44.535Z,83.78
2024-04-14T03:12:44.907Z,84.09
2024-04-14T03:13:45.288Z,84.43
2024-04-14T03:14:45.631Z,84.12
2024-04-14T03:15:45.988Z,84.33
2024-04-14T03:16:46.404Z,84.09
2024-04-14T03:17:46.728Z,84.09
2024-04-14T03:18:47.119Z,83.89
2024-04-14T03:19:47.438Z,83.89
2024-04-14T03:20:47.789Z,83.89
2024-04-14T03:21:48.243Z,83.82
2024-04-14T03:22:48.485Z,83.82
2024-04-14T03:23:48.860Z,83.72
2024-04-14T03:24:49.267Z,83.62
2024-04-14T03:25:49.581Z,83.31
2024-04-14T03:26:49.961Z,83.25
2024-04-14T03:27:50.405Z,83.15
2024-04-14T03:28:50.722Z,82.64
2024-04-14T03:29:50.998Z,82.74
2024-04-14T03:30:51.455Z,82.43
2024-04-14T03:31:51.759Z,82.84
2024-04-14T03:32:52.143Z,82.88
2024-04-14T03:33:52.473Z,82.57
2024-04-14T03:34:52.809Z,82.68
2024-04-14T03:35:53.166Z,82.23
2024-04-14T03:36:53.606Z,82.27
2024-04-14T03:37:53.931Z,82.68
2024-04-14T03:38:54.275Z,82.68
2024-04-14T03:39:54.736Z,82.57
2024-04-14T03:40:54.991Z,82.57
2024-04-14T03:41:55.331Z,82.88
2024-04-14T03:42:55.767Z,82.98
2024-04-14T03:43:56.037Z,82.88
2024-04-14T03:44:56.414Z,83.09
2024-04-14T03:45:57.150Z,83.18
2024-04-14T03:46:56.861Z,82.31
2024-04-14T03:47:57.093Z,82.31
2024-04-14T03:48:57.335Z,81.80
2024-04-14T03:49:57.516Z,81.29
2024-04-14T03:50:57.821Z,80.68
2024-04-14T03:51:58.124Z,80.47
2024-04-14T03:52:58.377Z,80.68
2024-04-14T03:53:58.659Z,80.37
2024-04-14T03:54:58.848Z,80.10
2024-04-14T03:55:59.004Z,79.80
2024-04-14T03:56:59.285Z,79.39
2024-04-14T03:57:59.492Z,79.59
2024-04-14T03:58:59.618Z,79.59
2024-04-14T03:59:59.911Z,79.39
2024-04-14T04:01:00.259Z,79.69
2024-04-14T04:02:00.390Z,79.08
2024-04-14T04:03:00.599Z,78.00
2024-04-14T04:04:00.750Z,77.96
2024-04-14T04:05:00.876Z,78.16
2024-04-14T04:06:01.056Z,78.20
2024-04-14T04:07:01.238Z,77.79
2024-04-14T04:08:03.850Z,78.00
2024-04-14T04:09:01.677Z,77.38
2024-04-14T04:10:02.007Z,77.48
2024-04-14T04:11:02.269Z,77.59
2024-04-14T04:12:02.410Z,78.00
2024-04-14T04:13:02.781Z,78.09
2024-04-14T04:14:02.877Z,78.20
2024-04-14T04:15:03.062Z,78.41
2024-04-14T04:16:03.249Z,78.20
2024-04-14T04:17:03.376Z,78.30
2024-04-14T04:18:03.700Z,78.50
2024-04-14T04:19:11.332Z,78.91
2024-04-14T04:20:04.138Z,79.12
2024-04-14T04:21:04.203Z,79.22
2024-04-14T04:22:04.462Z,79.43
2024-04-14T04:23:04.596Z,79.52
2024-04-14T04:24:04.835Z,80.18
2024-04-14T04:25:05.042Z,80.99
2024-04-14T04:26:05.262Z,81.10
2024-04-14T04:27:05.516Z,81.10
2024-04-14T04:28:05.776Z,81.30
2024-04-14T04:29:05.989Z,81.40
2024-04-14T04:30:06.288Z,81.71
2024-04-14T04:31:06.491Z,81.91
2024-04-14T04:32:06.762Z,81.91
2024-04-14T04:33:06.993Z,81.81
2024-04-14T04:34:07.294Z,81.91
2024-04-14T04:35:07.420Z,82.12
2024-04-14T04:36:07.712Z,82.32
2024-04-14T04:37:07.890Z,82.32
2024-04-14T04:38:08.207Z,82.32
2024-04-14T04:39:08.380Z,82.53
2024-04-14T04:40:08.726Z,82.28
2024-04-14T04:41:08.960Z,81.98
2024-04-14T04:42:09.238Z,82.42
2024-04-14T04:43:09.462Z,82.63
2024-04-14T04:44:09.615Z,82.83
2024-04-14T04:45:09.799Z,83.04
2024-04-14T04:46:10.119Z,83.14
2024-04-14T04:47:10.304Z,82.63
2024-04-14T04:48:10.713Z,83.07
2024-04-14T04:49:10.878Z,83.07
2024-04-14T04:50:11.152Z,82.46
2024-04-14T04:51:11.333Z,82.32
2024-04-14T04:52:11.526Z,82.15
2024-04-14T04:53:11.839Z,82.05
2024-04-14T04:54:11.984Z,81.74
2024-04-14T04:55:12.159Z,81.95
2024-04-14T04:56:12.349Z,81.85
2024-04-14T04:57:12.513Z,82.15
2024-04-14T04:58:12.717Z,82.05
2024-04-14T04:59:12.873Z,82.15
2024-04-14T05:00:13.038Z,82.26
2024-04-14T05:01:13.303Z,82.36
2024-04-14T05:02:13.420Z,82.67
2024-04-14T05:03:13.748Z,82.46
2024-04-14T05:04:13.831Z,82.53
2024-04-14T05:05:13.969Z,82.26
2024-04-14T05:06:14.117Z,82.46
2024-04-14T05:07:14.313Z,82.53
2024-04-14T05:08:14.524Z,82.22
2024-04-14T05:09:14.673Z,82.56
2024-04-14T05:10:14.868Z,82.32
2024-04-14T05:11:15.176Z,82.12
2024-04-14T05:12:15.245Z,82.63
2024-04-14T05:13:15.457Z,82.77
2024-04-14T05:14:15.641Z,83.28
2024-04-14T05:15:15.822Z,83.28
2024-04-14T05:16:16.009Z,83.18
2024-04-14T05:17:16.197Z,83.28
2024-04-14T05:18:16.470Z,83.48
2024-04-14T05:19:16.632Z,83.04
2024-04-14T05:20:16.793Z,82.83
2024-04-14T05:21:16.992Z,83.04
2024-04-14T05:22:17.160Z,82.73
2024-04-14T05:23:17.354Z,82.73
2024-04-14T05:24:17.545Z,82.26
2024-04-14T05:25:17.738Z,82.67
2024-04-14T05:26:17.846Z,83.14
2024-04-14T05:27:18.075Z,82.46
2024-04-14T05:28:18.256Z,82.56
2024-04-14T05:29:18.402Z,81.85
2024-04-14T05:30:18.664Z,81.95
2024-04-14T05:31:18.779Z,81.13
2024-04-14T05:32:18.998Z,81.74
2024-04-14T05:33:19.193Z,81.60
2024-04-14T05:34:19.354Z,81.40
2024-04-14T05:35:19.517Z,80.89
2024-04-14T05:36:19.710Z,80.89
2024-04-14T05:37:19.914Z,80.99
2024-04-14T05:38:20.124Z,80.89
2024-04-14T05:39:20.283Z,80.83
2024-04-14T05:40:20.481Z,80.89
2024-04-14T05:41:20.672Z,80.38
2024-04-14T05:42:20.843Z,80.62
2024-04-14T05:43:21.069Z,80.79
2024-04-14T05:44:21.214Z,80.69
2024-04-14T05:45:21.380Z,80.28
2024-04-14T05:46:21.561Z,80.01
2024-04-14T05:47:21.762Z,79.60
2024-04-14T05:48:21.979Z,80.83
2024-04-14T05:49:22.213Z,80.07
2024-04-14T05:50:22.292Z,80.18
2024-04-14T05:51:22.474Z,79.66
2024-04-14T05:52:22.700Z,79.60
2024-04-14T05:53:22.878Z,80.21
2024-04-14T05:54:23.051Z,79.29
2024-04-14T05:55:24.265Z,79.53
2024-04-14T05:56:23.404Z,79.70
2024-04-14T05:57:23.576Z,80.01
2024-04-14T05:58:23.795Z,79.97
2024-04-14T05:59:23.923Z,79.46
2024-04-14T06:00:24.121Z,79.77
2024-04-14T06:01:24.339Z,79.25
2024-04-14T06:02:24.467Z,79.36
2024-04-14T06:03:24.761Z,79.77
2024-04-14T06:04:25.008Z,79.87
2024-04-14T06:05:25.010Z,79.19
2024-04-14T06:06:25.209Z,79.80
2024-04-14T06:07:25.378Z,79.91
2024-04-14T06:08:25.586Z,80.18
2024-04-14T06:09:25.763Z,79.46
2024-04-14T06:10:25.960Z,79.05
2024-04-14T06:11:26.136Z,79.70
2024-04-14T06:12:26.365Z,79.91
2024-04-14T06:13:26.516Z,80.11
2024-04-14T06:14:26.699Z,80.01
2024-04-14T06:15:27.017Z,79.87
2024-04-14T06:16:27.133Z,79.77
2024-04-14T06:17:27.292Z,80.21
2024-04-14T06:18:27.485Z,80.42
2024-04-14T06:19:27.624Z,79.87
2024-04-14T06:20:27.821Z,79.66
2024-04-14T06:21:28.046Z,80.21
2024-04-14T06:22:28.165Z,80.38
2024-04-14T06:23:28.373Z,79.46
2024-04-14T06:24:28.575Z,79.77
2024-04-14T06:25:28.750Z,79.77
2024-04-14T06:26:28.928Z,79.63
2024-04-14T06:27:29.152Z,78.64
2024-04-14T06:28:29.411Z,78.54
2024-04-14T06:29:29.943Z,78.54
2024-04-14T06:30:29.759Z,78.34
2024-04-14T06:31:29.868Z,78.64
2024-04-14T06:32:30.131Z,78.54
2024-04-14T06:33:30.346Z,78.75
2024-04-14T06:34:30.401Z,78.44
2024-04-14T06:35:30.571Z,78.71
2024-04-14T06:36:30.813Z,77.83
2024-04-14T06:37:30.957Z,78.34
2024-04-14T06:38:31.147Z,78.44
2024-04-14T06:39:31.326Z,78.13
2024-04-14T06:40:31.491Z,77.31
2024-04-14T06:41:31.684Z,77.72
2024-04-14T06:42:31.942Z,77.93
2024-04-14T06:43:32.078Z,77.93
2024-04-14T06:44:32.232Z,77.72
2024-04-14T06:45:32.444Z,77.52
2024-04-14T06:46:32.587Z,77.59
2024-04-14T06:47:35.047Z,77.59
2024-04-14T06:48:32.997Z,77.75
2024-04-14T06:49:33.116Z,77.45
2024-04-14T06:50:33.301Z,77.11
2024-04-14T06:51:33.511Z,77.72
2024-04-14T06:52:33.686Z,77.31
2024-04-14T06:53:33.908Z,77.93
2024-04-14T06:54:34.177Z,77.79
2024-04-14T06:55:36.262Z,77.42
2024-04-14T06:56:34.429Z,78.20
2024-04-14T06:57:34.640Z,77.34
2024-04-14T06:58:34.897Z,77.25
2024-04-14T06:59:34.974Z,77.69
2024-04-14T07:00:35.307Z,78.44
2024-04-14T07:01:35.491Z,79.16
2024-04-14T07:02:35.683Z,78.61
2024-04-14T07:03:35.803Z,78.20
2024-04-14T07:04:35.943Z,77.62
2024-04-14T07:05:36.059Z,78.23
2024-04-14T07:06:36.262Z,78.44
2024-04-14T07:07:37.055Z,78.44
2024-04-14T07:08:36.653Z,77.52
2024-04-14T07:09:36.814Z,78.27
2024-04-14T07:10:37.309Z,79.05
2024-04-14T07:11:37.206Z,78.75
2024-04-14T07:12:37.385Z,77.93
2024-04-14T07:13:37.570Z,77.79
2024-04-14T07:14:37.718Z,77.79
2024-04-14T07:15:37.927Z,76.56
2024-04-14T07:16:38.100Z,76.63
2024-04-14T07:17:38.362Z,75.92
2024-04-14T07:18:38.626Z,74.79
2024-04-14T07:19:38.654Z,75.71
2024-04-14T07:20:38.844Z,76.19
2024-04-14T07:21:39.065Z,76.19
2024-04-14T07:22:39.251Z,75.54
2024-04-14T07:23:39.424Z,76.22
2024-04-14T07:24:39.590Z,75.68
2024-04-14T07:25:39.754Z,75.37
2024-04-14T07:26:39.939Z,74.66
2024-04-14T07:27:40.123Z,74.76
2024-04-14T07:28:40.337Z,75.57
2024-04-14T07:29:40.480Z,74.08
2024-04-14T07:30:40.999Z,74.76
2024-04-14T07:31:40.846Z,74.35
2024-04-14T07:32:41.109Z,72.62
2024-04-14T07:33:41.288Z,73.67
2024-04-14T07:34:41.406Z,74.25
2024-04-14T07:35:41.589Z,73.57
2024-04-14T07:36:41.791Z,73.94
2024-04-14T07:37:41.959Z,73.88
2024-04-14T07:38:42.137Z,73.98
2024-04-14T07:39:42.306Z,73.88
2024-04-14T07:40:42.476Z,74.49
2024-04-14T07:41:42.665Z,73.67
2024-04-14T07:42:42.963Z,74.25
2024-04-14T07:43:43.083Z,74.35
2024-04-14T07:44:43.220Z,74.46
2024-04-14T07:45:43.446Z,74.56
2024-04-14T07:46:43.621Z,74.15
2024-04-14T07:47:45.014Z,74.05
2024-04-14T07:48:44.061Z,74.56
2024-04-14T07:49:44.130Z,75.24
2024-04-14T07:50:44.342Z,74.93
2024-04-14T07:51:44.534Z,74.18
2024-04-14T07:52:44.726Z,74.18
2024-04-14T07:53:44.875Z,73.57
2024-04-14T07:54:45.111Z,72.52
2024-04-14T07:55:45.266Z,71.70
2024-04-14T07:56:45.453Z,72.38
2024-04-14T07:57:45.691Z,72.75
2024-04-14T07:58:45.874Z,72.65
2024-04-14T07:59:46.704Z,72.52
2024-04-14T08:00:46.207Z,71.84
2024-04-14T08:01:46.385Z,73.50
2024-04-14T08:02:46.545Z,73.67
2024-04-14T08:03:53.451Z,72.14
2024-04-14T08:04:46.950Z,71.73
2024-04-14T08:05:47.055Z,71.84
2024-04-14T08:06:47.312Z,71.84
2024-04-14T08:07:47.450Z,72.07
2024-04-14T08:08:47.684Z,72.69
2024-04-14T08:09:47.834Z,72.17
2024-04-14T08:10:48.010Z,72.89
2024-04-14T08:11:48.167Z,73.06
2024-04-14T08:12:48.506Z,72.79
2024-04-14T08:13:48.581Z,73.16
2024-04-14T08:14:48.732Z,73.23
2024-04-14T08:15:48.949Z,71.84
2024-04-14T08:16:49.170Z,71.39
2024-04-14T08:17:49.284Z,70.85
2024-04-14T08:18:49.494Z,70.04
2024-04-14T08:19:49.635Z,69.93
2024-04-14T08:20:49.830Z,70.34
2024-04-14T08:21:50.061Z,70.27
2024-04-14T08:22:50.235Z,70.78
2024-04-14T08:23:50.473Z,70.27
2024-04-14T08:24:50.622Z,69.25
2024-04-14T08:25:50.795Z,68.61
2024-04-14T08:26:50.984Z,69.22
2024-04-14T08:27:51.191Z,67.59
2024-04-14T08:28:51.400Z,67.18
2024-04-14T08:29:51.543Z,67.66
2024-04-14T08:30:51.764Z,67.83
2024-04-14T08:31:52.173Z,68.13
2024-04-14T08:32:52.175Z,67.90
2024-04-14T08:33:52.347Z,69.73
2024-04-14T08:34:52.434Z,68.68
2024-04-14T08:35:52.627Z,69.42
2024-04-14T08:36:52.846Z,69.22
2024-04-14T08:37:52.988Z,69.42
2024-04-14T08:38:53.191Z,69.59
2024-04-14T08:39:53.390Z,69.70
2024-04-14T08:40:53.531Z,70.07
2024-04-14T08:41:53.727Z,67.83
2024-04-14T08:42:53.930Z,69.12
2024-04-14T08:43:54.128Z,67.66
2024-04-14T08:44:54.295Z,69.36
2024-04-14T08:45:54.598Z,67.73
2024-04-14T08:46:54.704Z,67.90
2024-04-14T08:47:54.889Z,67.49
2024-04-14T08:48:55.092Z,66.68
2024-04-14T08:49:55.270Z,66.38
2024-04-14T08:50:55.408Z,66.85
2024-04-14T08:51:55.745Z,66.04
2024-04-14T08:52:55.772Z,66.65
2024-04-14T08:53:58.378Z,66.38
2024-04-14T08:54:56.165Z,66.20
2024-04-14T08:55:56.338Z,67.22
2024-04-14T08:56:56.546Z,66.74
2024-04-14T08:57:56.770Z,66.54
2024-04-14T08:58:56.921Z,65.80
2024-04-14T08:59:57.083Z,66.61
2024-04-14T09:00:57.296Z,67.29
2024-04-14T09:01:57.507Z,65.97
2024-04-14T09:02:57.641Z,66.88
2024-04-14T09:03:57.903Z,65.56
2024-04-14T09:04:57.981Z,66.38
2024-04-14T09:05:58.225Z,66.85
2024-04-14T09:06:58.380Z,66.61
2024-04-14T09:07:58.519Z,67.10
2024-04-14T09:08:58.687Z,66.89
2024-04-14T09:09:58.876Z,64.48
2024-04-14T09:10:59.042Z,64.99
2024-04-14T09:11:59.215Z,65.22
2024-04-14T09:12:59.465Z,65.80
2024-04-14T09:13:59.624Z,62.98
2024-04-14T09:14:59.782Z,63.62
2024-04-14T09:16:00.027Z,63.65
2024-04-14T09:17:00.152Z,63.99
2024-04-14T09:18:00.441Z,64.09
2024-04-14T09:19:00.617Z,64.06
2024-04-14T09:20:00.684Z,64.78
2024-04-14T09:21:00.857Z,65.39
2024-04-14T09:22:01.119Z,64.87
2024-04-14T09:23:01.253Z,65.39
2024-04-14T09:24:01.424Z,66.10
2024-04-14T09:25:01.677Z,64.87
2024-04-14T09:26:01.776Z,64.98
2024-04-14T09:27:01.974Z,64.26
2024-04-14T09:28:02.258Z,63.99
2024-04-14T09:29:02.390Z,64.40
2024-04-14T09:30:02.542Z,65.08
2024-04-14T09:31:02.757Z,64.17
2024-04-14T09:32:05.676Z,64.14
2024-04-14T09:33:03.174Z,63.01
2024-04-14T09:34:03.361Z,63.62
2024-04-14T09:35:03.464Z,63.70
2024-04-14T09:36:03.651Z,62.78
2024-04-14T09:37:03.956Z,62.88
2024-04-14T09:38:04.080Z,63.65
2024-04-14T09:39:04.217Z,64.60
2024-04-14T09:40:04.539Z,64.87
2024-04-14T09:41:04.579Z,64.87
2024-04-14T09:42:04.761Z,64.87
2024-04-14T09:43:05.013Z,65.28
2024-04-14T09:44:05.179Z,65.97
2024-04-14T09:45:05.331Z,63.96
2024-04-14T09:46:05.637Z,64.06
2024-04-14T09:47:05.727Z,64.84
2024-04-14T09:48:05.913Z,63.15
2024-04-14T09:49:06.288Z,63.86
2024-04-14T09:50:06.231Z,63.83
2024-04-14T09:51:06.524Z,64.11
2024-04-14T09:52:06.704Z,63.57
2024-04-14T09:53:06.797Z,62.24
2024-04-14T09:54:07.004Z,61.69
2024-04-14T09:55:07.224Z,62.10
2024-04-14T09:56:07.370Z,61.90
2024-04-14T09:57:07.550Z,61.82
2024-04-14T09:58:07.834Z,61.00
2024-04-14T09:59:07.994Z,61.61
2024-04-14T10:00:08.270Z,61.36
2024-04-14T10:01:08.455Z,60.64
2024-04-14T10:02:08.562Z,60.77
2024-04-14T10:03:08.735Z,60.98
2024-04-14T10:04:09.094Z,62.10
2024-04-14T10:05:09.075Z,62.13
2024-04-14T10:06:09.303Z,62.46
2024-04-14T10:07:09.474Z,62.54
2024-04-14T10:08:09.650Z,62.43
2024-04-14T10:09:09.846Z,62.27
2024-04-14T10:10:10.091Z,62.33
2024-04-14T10:11:10.214Z,63.45
2024-04-14T10:12:10.372Z,62.54
2024-04-14T10:13:10.573Z,62.61
2024-04-14T10:14:10.765Z,63.15
2024-04-14T10:15:10.941Z,62.94
2024-04-14T10:16:11.268Z,63.93
2024-04-14T10:17:11.301Z,62.68
2024-04-14T10:18:11.496Z,63.49
2024-04-14T10:19:11.707Z,64.65
2024-04-14T10:20:11.866Z,62.21
2024-04-14T10:21:12.036Z,60.85
2024-04-14T10:22:12.276Z,60.77
2024-04-14T10:23:12.424Z,62.10
2024-04-14T10:24:12.589Z,63.12
2024-04-14T10:25:12.798Z,62.13
2024-04-14T10:26:12.937Z,62.54
2024-04-14T10:27:13.107Z,62.43
2024-04-14T10:28:13.316Z,61.82
2024-04-14T10:29:13.519Z,61.25
2024-04-14T10:30:13.684Z,60.85
2024-04-14T10:31:13.900Z,61.43
2024-04-14T10:32:14.071Z,60.21
2024-04-14T10:33:14.406Z,60.38
2024-04-14T10:34:14.569Z,61.07
2024-04-14T10:35:14.651Z,60.97
2024-04-14T10:36:14.834Z,59.47
2024-04-14T10:37:15.048Z,60.18
2024-04-14T10:38:15.246Z,60.05
2024-04-14T10:39:15.537Z,60.21
2024-04-14T10:40:15.618Z,60.14
2024-04-14T10:41:15.831Z,61.46
2024-04-14T10:42:16.006Z,60.44
2024-04-14T10:43:16.310Z,60.54
2024-04-14T10:44:16.463Z,60.54
2024-04-14T10:45:16.613Z,60.52
2024-04-14T10:46:16.883Z,60.79
2024-04-14T10:47:17.092Z,59.82
2024-04-14T10:48:17.236Z,59.52
2024-04-14T10:49:17.458Z,58.91
2024-04-14T10:50:17.633Z,59.03
2024-04-14T10:51:17.806Z,59.03
2024-04-14T10:52:17.995Z,60.49
2024-04-14T10:53:18.178Z,61.60
2024-04-14T10:54:18.415Z,60.69
2024-04-14T10:55:18.608Z,59.37
2024-04-14T10:56:18.764Z,60.31
2024-04-14T10:57:18.940Z,60.75
2024-04-14T10:58:19.135Z,61.53
2024-04-14T10:59:19.367Z,62.11
2024-04-14T11:00:19.534Z,61.17
2024-04-14T11:01:19.802Z,60.97
2024-04-14T11:02:19.928Z,59.54
2024-04-14T11:03:20.164Z,60.43
2024-04-14T11:04:20.419Z,60.20
2024-04-14T11:05:20.481Z,60.22
2024-04-14T11:06:20.666Z,60.94
2024-04-14T11:07:20.864Z,61.34
2024-04-14T11:08:21.096Z,60.22
2024-04-14T11:09:21.341Z,60.53
2024-04-14T11:10:21.491Z,59.21
2024-04-14T11:11:21.766Z,59.24
2024-04-14T11:12:21.842Z,58.76
2024-04-14T11:13:22.057Z,58.96
2024-04-14T11:14:22.293Z,60.21
2024-04-14T11:15:22.441Z,60.46
2024-04-14T11:16:22.782Z,59.75
2024-04-14T11:17:22.828Z,60.46
2024-04-14T11:18:23.004Z,59.92
2024-04-14T11:19:23.232Z,60.43
2024-04-14T11:20:23.380Z,59.79
2024-04-14T11:21:23.571Z,58.17
2024-04-14T11:22:23.790Z,57.46
2024-04-14T11:23:24.005Z,58.24
2024-04-14T11:24:24.258Z,56.49
2024-04-14T11:25:24.429Z,57.30
2024-04-14T11:26:24.618Z,57.59
2024-04-14T11:27:24.796Z,59.01
2024-04-14T11:28:25.063Z,59.18
2024-04-14T11:29:25.198Z,59.08
2024-04-14T11:30:25.385Z,59.70
2024-04-14T11:31:25.585Z,58.31
2024-04-14T11:32:25.850Z,58.95
2024-04-14T11:33:26.120Z,61.13
2024-04-14T11:34:26.291Z,57.50
2024-04-14T11:35:26.451Z,57.37
2024-04-14T11:36:26.666Z,56.61
2024-04-14T11:37:26.872Z,55.70
2024-04-14T11:38:27.096Z,55.07
2024-04-14T11:39:27.286Z,54.97
2024-04-14T11:40:27.487Z,57.60
2024-04-14T11:41:27.659Z,55.17
2024-04-14T11:42:27.867Z,56.82
2024-04-14T11:43:28.059Z,59.12
2024-04-14T11:44:28.298Z,58.42
2024-04-14T11:45:28.585Z,58.24
2024-04-14T11:46:28.714Z,58.47
2024-04-14T11:47:28.960Z,60.20
2024-04-14T11:48:29.135Z,59.26
2024-04-14T11:49:29.347Z,57.91
2024-04-14T11:50:29.505Z,57.07
2024-04-14T11:51:29.762Z,55.32
2024-04-14T11:52:29.918Z,55.32
2024-04-14T11:53:30.110Z,55.50
2024-04-14T11:54:30.355Z,53.80
2024-04-14T11:55:30.507Z,54.53
2024-04-14T11:56:30.708Z,55.27
2024-04-14T11:57:30.993Z,55.78
2024-04-14T11:58:31.145Z,55.27
2024-04-14T11:59:31.398Z,55.83
2024-04-14T12:00:31.577Z,55.27
2024-04-14T12:01:31.826Z,55.99
2024-04-14T12:02:32.035Z,56.98
2024-04-14T12:03:32.106Z,56.41
2024-04-14T12:04:32.368Z,54.90
2024-04-14T12:05:32.465Z,56.41
2024-04-14T12:06:32.665Z,57.23
2024-04-14T12:07:32.829Z,56.52
2024-04-14T12:08:33.027Z,56.11
2024-04-14T12:09:33.283Z,53.34
2024-04-14T12:10:33.387Z,53.09
2024-04-14T12:11:33.549Z,52.89
2024-04-14T12:12:33.779Z,53.72
2024-04-14T12:13:33.919Z,54.39
2024-04-14T12:14:34.129Z,52.86
2024-04-14T12:15:34.413Z,53.19
2024-04-14T12:16:34.557Z,54.94
2024-04-14T12:17:34.764Z,54.00
2024-04-14T12:18:34.913Z,54.61
2024-04-14T12:19:35.897Z,54.31
2024-04-14T12:20:35.286Z,54.99
2024-04-14T12:21:35.544Z,54.84
2024-04-14T12:22:35.644Z,54.92
2024-04-14T12:23:36.745Z,55.22
2024-04-14T12:24:36.067Z,56.82
2024-04-14T12:25:36.181Z,55.30
2024-04-14T12:26:36.362Z,56.01
2024-04-14T12:27:36.624Z,55.83
2024-04-14T12:28:36.747Z,56.09
2024-04-14T12:29:36.955Z,56.47
2024-04-14T12:31:37.315Z,57.18
2024-04-14T12:32:37.586Z,57.61
2024-04-14T12:33:37.695Z,57.71
2024-04-14T12:34:37.959Z,57.10
2024-04-14T12:35:38.043Z,57.92
2024-04-14T12:36:38.238Z,57.81
2024-04-14T12:37:38.364Z,57.31
2024-04-14T12:38:38.557Z,57.64
2024-04-14T12:39:38.832Z,58.35
2024-04-14T12:40:38.963Z,58.60
2024-04-14T12:41:39.159Z,57.73
2024-04-14T12:42:39.438Z,57.30
2024-04-14T12:43:39.532Z,57.50
2024-04-14T12:44:39.756Z,57.12
2024-04-14T12:45:40.028Z,57.98
2024-04-14T12:46:40.178Z,56.72
2024-04-14T12:47:40.340Z,58.11
2024-04-14T12:48:40.621Z,58.18
2024-04-14T12:49:40.770Z,59.58
2024-04-14T12:50:44.751Z,60.33
2024-04-14T12:51:41.182Z,60.53
2024-04-14T12:52:41.341Z,61.47
2024-04-14T12:53:41.518Z,59.48
2024-04-14T12:54:41.744Z,60.21
2024-04-14T12:55:41.876Z,60.62
2024-04-14T12:56:42.072Z,60.08